Espace membre
Imprimable
Brussel, 02/10/2016, BEL - Brussels Marathon & Half Marathon
Liste des rapports > Half-Marathon - Classement
Recherche: Page: 1 2 3 [4] 5 6 7 8 9 10
4511 Entrées
 
Les réclamations ne sont plus acceptées, les résultats sont considérés comme définitifs.
Catégorie
PosNrNomAgeIOCTempsTkmMoy.RangNomScrLocalité
Vos photos gr?ce ? Sportograf1491.10045SMETS Staf36BEL1:45:245:00 12.01260M351612ROTSELAAR
Vos photos gr?ce ? Sportograf1492.3772TEUGELS Emebert Leo53BEL1:45:245:00 12.0197M501613DENDERLEEUW
Vos photos gr?ce ? Sportograf1493.3774BOCHENEK Jimmy41BEL1:45:255:00 12.01196M401615ZONHOVEN
Vos photos gr?ce ? Sportograf1494.6510TOURNEUR Thomas28BEL1:45:295:01 12.00713SEH1617LOUVAIN-LA-NEUVE
Vos photos gr?ce ? Sportograf1495.5964MARC Benjamin27FRA1:45:295:01 12.00714SEH1618UCCLE
Vos photos gr?ce ? Sportograf1496.9367DERMIEN Vincent31BEL1:45:295:01 12.00715SEH1619MONS
Vos photos gr?ce ? Sportograf1497.3173COPPENS Stephen25BEL1:45:305:01 12.00716SEH1620WAREGEM
Vos photos gr?ce ? Sportograf1498.3172DHAENE Wannes25BEL1:45:305:01 12.00717SEH1621DEERLIJK
Vos photos gr?ce ? Sportograf1499.10486DURAY Olivier46BEL1:45:315:01 12.00167M451622
Vos photos gr?ce ? Sportograf1500.5834SADIN Jerome29BEL1:45:315:01 12.00718SEH1623ESPLECHIN
Vos photos gr?ce ? Sportograf1501.5036MARECHAL Jean Francois50FRA1:45:325:01 11.9998M501624BRUXELLES
Vos photos gr?ce ? Sportograf1502.7708HAESENDONCK Gilles25BEL1:45:325:01 11.99719SEH1625ROOSDAAL
Vos photos gr?ce ? Sportograf1503.5896DERMINE Augustin29BEL1:45:325:01 11.99720SEH1626UCCLE
Vos photos gr?ce ? Sportograf1504.10171ZAOUIA Saïd31BEL1:45:325:01 11.99721SEH1627TAINTIGNIES
Vos photos gr?ce ? Sportograf1505.9245ROCHAYA Christian46FRA1:45:325:01 11.99168M451628BRUXELLES
Vos photos gr?ce ? Sportograf1506.4482CORNET Frederic40FRA1:45:335:01 11.99197M401630BRUXELLES
Vos photos gr?ce ? Sportograf1507.3068SPITALIERI Jospeh45BEL1:45:335:01 11.99169M451631BLATON
Vos photos gr?ce ? Sportograf1508.10565VAN DORPE Koen46BEL1:45:345:01 11.99170M451632
Vos photos gr?ce ? Sportograf1509.12143MISERQUE David42BEL1:45:365:01 11.99198M401633ANDERLECHT
Vos photos gr?ce ? Sportograf1510.8063QUENON Frederic45BEL1:45:365:01 11.99171M451634JURBISE
Vos photos gr?ce ? Sportograf1511.4451VERMEULEN Dirk Jan50NLD1:45:375:01 11.9999M501635UCCLE
Vos photos gr?ce ? Sportograf1512.10633BRANSON Hans45BEL1:45:375:01 11.98172M451636
Vos photos gr?ce ? Sportograf1513.10383MISSAULT Vincent51BEL1:45:385:01 11.98100M501637
Vos photos gr?ce ? Sportograf1514.7952HANOTEAUX Raphaël Antoine27FRA1:45:385:01 11.98722SEH1639IXELLES
Vos photos gr?ce ? Sportograf1515.9263VAN DER BORGHT Koen36BEL1:45:395:01 11.98261M351640KONTICH
Vos photos gr?ce ? Sportograf1516.8015NUELA ESCOBAR Antonio Trajano55BEL1:45:405:01 11.9839M551641ANDERLUES
Vos photos gr?ce ? Sportograf1517.3724GEORGES Martin28BEL1:45:405:01 11.98723SEH1642BRUXELLES
Vos photos gr?ce ? Sportograf1518.3809ZYLBERBERG Luc64BEL1:45:405:01 11.9813M601643MOLENBEEK
Vos photos gr?ce ? Sportograf1519.9489LIBENS Pascal45BEL1:45:405:01 11.98173M451644STROMBEEK-BEVER
Vos photos gr?ce ? Sportograf1520.6325BOSTOEN Claude53BEL1:45:415:01 11.98101M501645BILZEN
Vos photos gr?ce ? Sportograf1521.7950NR 7950 -1:45:425:01 11.98-1646
Vos photos gr?ce ? Sportograf1522.4617GARCIA UCEDA JUAREZ Antonio27BEL1:45:445:01 11.97724SEH1647LEUVEN
Vos photos gr?ce ? Sportograf1523.10614SLACHMUYLDERS Jan51BEL1:45:445:01 11.97102M501648
Vos photos gr?ce ? Sportograf1524.5871LIEVENS Denis45BEL1:45:455:01 11.97174M451649BRUXELLES
Vos photos gr?ce ? Sportograf1525.4821PETY Benoît51FRA1:45:455:01 11.97103M501650DUNKERQUE
Vos photos gr?ce ? Sportograf1526.11649SIMONART Axel54BEL1:45:475:01 11.97104M501651BRUXELLES
Vos photos gr?ce ? Sportograf1527.6537DELAERE Christophe53BEL1:45:475:01 11.97105M5016521150
Vos photos gr?ce ? Sportograf1528.5272VERMEERSCH Olivier37BEL1:45:485:01 11.96262M351653MOUSCRON
Vos photos gr?ce ? Sportograf1529.10535GEENS Maarten32BEL1:45:485:01 11.96725SEH1654
Vos photos gr?ce ? Sportograf1530.9692DUPRIEZ Benoit46BEL1:45:485:01 11.96175M451655OTTIGNIES
Vos photos gr?ce ? Sportograf1531.5083SPILLEBEEN Jozef53BEL1:45:485:01 11.96106M501656MERCHTEM
Vos photos gr?ce ? Sportograf1532.5266DURAND Robert58FRA1:45:485:01 11.9640M551657AMIENS
Vos photos gr?ce ? Sportograf1533.3258GERARD Kristof28BEL1:45:485:01 11.96726SEH1658HERNE
Vos photos gr?ce ? Sportograf1534.6987PULIDO DE LA VEGA Carlos42ESP1:45:495:01 11.96199M401660ETTERBEEK
Vos photos gr?ce ? Sportograf1535.3112LÜTTIG Carsten48DEU1:45:505:01 11.96176M451661EVERBERG
Vos photos gr?ce ? Sportograf1536.7283FEIGHAN Conor30IRL1:45:505:01 11.96727SEH1663BRUSSELS
Vos photos gr?ce ? Sportograf1537.7493DEWAEL Carl55BEL1:45:505:02 11.9641M551664MECHELEN
Vos photos gr?ce ? Sportograf1538.9504RYCKAERT Jan33BEL1:45:515:02 11.96728SEH1665BRAINE-L'ALLEUD
Vos photos gr?ce ? Sportograf1539.5611HIMPE Jeffrey29BEL1:45:525:02 11.96729SEH1666OTTIGNIES
Vos photos gr?ce ? Sportograf1540.6000VANDENBERGHE Wannes17BEL1:45:525:02 11.96730SEH1667POPERINGE
Vos photos gr?ce ? Sportograf1541.9503ROLAND Pierre29BEL1:45:535:02 11.96731SEH1669SCHAARBEEK
Vos photos gr?ce ? Sportograf1542.4872TANGUY De Crayencour51BEL1:45:535:02 11.96107M501670WATERLOO
Vos photos gr?ce ? Sportograf1543.5196COOMANS Nicolas25BEL1:45:535:02 11.95732SEH1674WEMMEL
Vos photos gr?ce ? Sportograf1544.6471POURBAIX Vincent43BEL1:45:545:02 11.95200M401676WOLUWE-ST-PIERRE
Vos photos gr?ce ? Sportograf1545.4289MAIRESSE Ludovic26FRA1:45:555:02 11.95733SEH1677ELANCOURT
Vos photos gr?ce ? Sportograf1546.5663RAMAEKERS Marc47BEL1:45:555:02 11.95177M451678TONGEREN
Vos photos gr?ce ? Sportograf1547.3357BECKERS Pierre34BEL1:45:555:02 11.95734SEH1679GRIMBERGEN
Vos photos gr?ce ? Sportograf1548.7678VIGNERI Olivier43BEL1:45:565:02 11.95201M401680OORDEGEM
Vos photos gr?ce ? Sportograf1549.10769VERHEYDEN Bart37BEL1:45:565:02 11.95263M351681
Vos photos gr?ce ? Sportograf1550.7955HORITA Hanjiro39BEL1:45:565:02 11.95264M351682BRUXELLES
Vos photos gr?ce ? Sportograf1551.3429WYNANTS Jérémy22BEL1:45:565:02 11.95735SEH1683ANDERLECHT
Vos photos gr?ce ? Sportograf1552.5547ELLIOTT Stephen60GBR1:45:565:02 11.9514M601684SWANWICK
Vos photos gr?ce ? Sportograf1553.9404COUNEROTTE Frédéric47BEL1:45:565:02 11.95178M451685NAMUR
Vos photos gr?ce ? Sportograf1554.9690KRYSZTOFIAK Thomas29BEL1:45:575:02 11.95736SEH1686KESSEL-LO
Vos photos gr?ce ? Sportograf1555.9102GROOTJANS Axel29BEL1:45:585:02 11.95737SEH1688MOLENBEEK
Vos photos gr?ce ? Sportograf1556.10956FRISSON Benoît Luc46BEL1:45:585:02 11.94179M451689WOLUWE-SAINT-PIERRE
Vos photos gr?ce ? Sportograf1557.4198QUINTIN Alexandre26BEL1:45:585:02 11.94738SEH1690BRUXELLES
Vos photos gr?ce ? Sportograf1558.5618ROUSSEAUX Jeremie34FRA1:45:595:02 11.94739SEH1691IXELLES
Vos photos gr?ce ? Sportograf1559.8113ROMÁN VACA Francisco28ESP1:45:595:02 11.94740SEH1692BRUSSELS
Vos photos gr?ce ? Sportograf1560.3951CREEMERS Mathias26BEL1:45:595:02 11.94741SEH1693ZELLIK
Vos photos gr?ce ? Sportograf1561.5690KRAUZE Mateusz31POL1:46:005:02 11.94742SEH1694LONDON
Vos photos gr?ce ? Sportograf1562.3554TAYAL Harsh32IND1:46:015:02 11.94743SEH1695LEUVEN
Vos photos gr?ce ? Sportograf1563.6856WALRAVENS Niki37BEL1:46:025:02 11.94265M351696VILVOORDE
Vos photos gr?ce ? Sportograf1564.5297MARCHANT Frederick39BEL1:46:035:02 11.94266M351697OOSTDUINKERKE
Vos photos gr?ce ? Sportograf1565.7653DEVRIESE Sven39BEL1:46:035:02 11.94267M351698VARSENARE
Vos photos gr?ce ? Sportograf1566.7705TORDEUR Olivier44BEL1:46:035:02 11.94202M401699LEMBEEK
Vos photos gr?ce ? Sportograf1567.4472GIBBON William47GBR1:46:045:02 11.93180M451700SCHAERBEEK
Vos photos gr?ce ? Sportograf1568.3732VANDERKLUYSEN Michael43BEL1:46:045:02 11.93203M401701LEMBEEK
Vos photos gr?ce ? Sportograf1569.4376SCIFO Rosario45BEL1:46:045:02 11.93181M451702GRÂCE-HOLLOGNE
Vos photos gr?ce ? Sportograf1570.5745LEBUR Guillaume34FRA1:46:055:02 11.93744SEH1703IXELLES
Vos photos gr?ce ? Sportograf1571.5636REIGELUTH Stuart37BEL1:46:065:02 11.93268M351704WATERLOO
Vos photos gr?ce ? Sportograf1572.7444KUSKUSI Jabir37FRA1:46:075:02 11.93269M351706GAGNY
Vos photos gr?ce ? Sportograf1573.3560VAN EYLEN Herman52BEL1:46:085:02 11.93108M501710NIEUWRODE
Vos photos gr?ce ? Sportograf1574.10473DE BOEVER Peter37BEL1:46:085:02 11.93270M351711
Vos photos gr?ce ? Sportograf1575.7575GRANDBASTIEN Jerome37FRA1:46:085:02 11.93271M351713BRUXELLES
Vos photos gr?ce ? Sportograf1575.5789MACHALE Liam47IRL1:46:085:02 11.93182M451713BRUSSELS
Vos photos gr?ce ? Sportograf1577.5111VALKENERS Rens19BEL1:46:095:02 11.92745SEH1715DIEPENBEEK
Vos photos gr?ce ? Sportograf1578.10289HEIRWEGH Hans24BEL1:46:105:02 11.92746SEH1716ZELE
Vos photos gr?ce ? Sportograf1579.3340CHOQUET Thomas42BEL1:46:105:02 11.92204M401717GOTTIGNIES
Vos photos gr?ce ? Sportograf1580.4942BASTIAENS Herman32BEL1:46:115:02 11.92747SEH1718TONGEREN
Vos photos gr?ce ? Sportograf1581.4452VAN MIDDELEM Maarten30BEL1:46:115:02 11.92748SEH1720DILBEEK
Vos photos gr?ce ? Sportograf1582.7465ANDRIEUX Loïc49FRA1:46:115:03 11.92183M451721LUXEMBOURG
Vos photos gr?ce ? Sportograf1583.3116NILSEN Oyvind31NOR1:46:125:03 11.92749SEH1722IXELLES
Vos photos gr?ce ? Sportograf1584.9399CHARLES Sebastien41BEL1:46:145:03 11.92205M401725BRUXELLES
Vos photos gr?ce ? Sportograf1585.5577PASCAL Vlaemminck51BEL1:46:145:03 11.92109M501726JAUCHE
Vos photos gr?ce ? Sportograf1586.7772SOLE Vincenzo57ITA1:46:145:03 11.9242M551727WATERLOO
Vos photos gr?ce ? Sportograf1587.5653LÖYTTYNIEMI Lauri18FIN1:46:145:03 11.91750SEH1729KRAAINEM
Vos photos gr?ce ? Sportograf1588.5074GILLON Gatien34BEL1:46:155:03 11.91751SEH1730BRUXELLES
Vos photos gr?ce ? Sportograf1589.6383MOL Justin26BEL1:46:155:03 11.91752SEH1731ANTWERPEN
Vos photos gr?ce ? Sportograf1590.11748PETITJEAN Mathieu22BEL1:46:155:03 11.91753SEH1732BRUXELLES
Vos photos gr?ce ? Sportograf1591.6384DE POORTER Bruno29BEL1:46:155:03 11.91754SEH1733ZOMERGEM
Vos photos gr?ce ? Sportograf1592.6342RIGOT Jérôme50BEL1:46:165:03 11.91110M501734BRUXELLES
Vos photos gr?ce ? Sportograf1593.7632DEGAND Ludovic36BEL1:46:165:03 11.91272M351735COLFONTAINE
Vos photos gr?ce ? Sportograf1594.5399DE VOLDERE Peter43BEL1:46:175:03 11.91206M401736BERCHEM
Vos photos gr?ce ? Sportograf1595.10978DAVYDOV Leonid Viktorovitch54BEL1:46:175:03 11.91111M501737WATERLOO
Vos photos gr?ce ? Sportograf1596.9912BRONCHART François27BEL1:46:175:03 11.91755SEH1738BRUGELETTE
Vos photos gr?ce ? Sportograf1597.12313STOZ Rémy17BEL1:46:185:03 11.91756SEH1739WASTINES
Vos photos gr?ce ? Sportograf1598.10086SCHOKKAERT Koen42BEL1:46:195:03 11.91207M401740OUTER
Vos photos gr?ce ? Sportograf1599.3180KAWACHI Hisanao55JPN1:46:195:03 11.9143M551742BRUSSELS
Vos photos gr?ce ? Sportograf1600.12345GREGOIRE Philippe56BEL1:46:195:03 11.9144M551743BONLEZ
Vos photos gr?ce ? Sportograf1601.5442HANNAERT Jonathan21BEL1:46:195:03 11.91757SEH1744KRAAINEM
Vos photos gr?ce ? Sportograf1602.6108MEY Olivier44FRA1:46:195:03 11.91208M401745UCCLE
Vos photos gr?ce ? Sportograf1603.6197AGRELL Per49SWE1:46:205:03 11.90184M451746BRUXELLES
Vos photos gr?ce ? Sportograf1604.9092CARRASCO AMBRONA Santiago28ESP1:46:205:03 11.90758SEH1747SCHAERBEEK
Vos photos gr?ce ? Sportograf1605.7720PHILIPPE Grandelet46BEL1:46:205:03 11.90185M451748RIXENSART
Vos photos gr?ce ? Sportograf1606.4954FRANSSENS Matthias42BEL1:46:215:03 11.90209M401749BRUXELLES
Vos photos gr?ce ? Sportograf1607.9375POPPE Nils30BEL1:46:215:03 11.90759SEH1750WACHTEBEKE
Vos photos gr?ce ? Sportograf1608.6215BOULANGÉ Geert58BEL1:46:225:03 11.9045M551751DIEGEM
Vos photos gr?ce ? Sportograf1609.8116NYS Peter53BEL1:46:225:03 11.90112M501752ASSE
Vos photos gr?ce ? Sportograf1610.11680BAZILL John56GBR1:46:225:03 11.9046M551753TERVUREN
Vos photos gr?ce ? Sportograf1611.7540ROVITUSO Antonio56ITA1:46:225:03 11.9047M551754MERKSEM
Vos photos gr?ce ? Sportograf1612.9908VAN ORDEN Kris40BEL1:46:235:03 11.90210M401756WILRIJK
Vos photos gr?ce ? Sportograf1613.7061PAGE Thibaut35BEL1:46:235:03 11.90273M351757INCOURT
Vos photos gr?ce ? Sportograf1614.7942LE NOUVEL Christophe46FRA1:46:235:03 11.90186M451758WEZEMBEEK
Vos photos gr?ce ? Sportograf1615.6579BRAUN Thorsten29DEU1:46:235:03 11.90760SEH1759DAMSTADT
Vos photos gr?ce ? Sportograf1616.5346VANOOST Kristof40NLD1:46:255:03 11.90211M401761HASSELT
Vos photos gr?ce ? Sportograf1617.4695OLIVIERS Kristof32BEL1:46:265:03 11.89761SEH1763TIENEN
Vos photos gr?ce ? Sportograf1618.4734BELALLAM Laurent24BEL1:46:275:03 11.89762SEH1764BRUXELLES
Vos photos gr?ce ? Sportograf1619.8396DEHEZ Remy23FRA1:46:275:03 11.89763SEH1766BERCHEM STE AGATHE
Vos photos gr?ce ? Sportograf1620.7409OTTO Alexis36FRA1:46:285:03 11.89274M351767PARIS
Vos photos gr?ce ? Sportograf1621.5634REIGELUTH Tyler27BEL1:46:285:03 11.89764SEH1768WATERLOO
Vos photos gr?ce ? Sportograf1622.10946MÜLLER Klaus59BEL1:46:285:03 11.8948M551769WOLUWE-SAINT-LAMBERT
Vos photos gr?ce ? Sportograf1623.3288LINNEMANN Tobias41DEU1:46:285:03 11.89212M401770MACHELEN
Vos photos gr?ce ? Sportograf1624.6257VERSCHOREN Sven31BEL1:46:295:03 11.89765SEH1771WILRIJK
Vos photos gr?ce ? Sportograf1625.11759NR 11759 -1:46:295:03 11.89-1772
Vos photos gr?ce ? Sportograf1626.3427NAVEZ Tom18FRA1:46:295:03 11.89766SEH1773SOLRE LE CHÂTEAU
Vos photos gr?ce ? Sportograf1627.4926VANDEVENNE Senne28BEL1:46:295:03 11.89767SEH1774OUDENAARDE
Vos photos gr?ce ? Sportograf1628.4601JACQUES Alexandre35BEL1:46:305:03 11.89275M351775HANNÊCHE
Vos photos gr?ce ? Sportograf1629.11615MIGLIACCIO Bruno57ITA1:46:315:03 11.8849M551776NAPOLI
Vos photos gr?ce ? Sportograf1630.5684LAMONT Geoffrey31BEL1:46:315:03 11.88768SEH1777DE PINTE
Vos photos gr?ce ? Sportograf1631.6595NICOLAS Carlos45ESP1:46:315:03 11.88187M451778WOLUWE-ST-PIERRE
Vos photos gr?ce ? Sportograf1632.7229SPRIMONT Francois24BEL1:46:325:03 11.88769SEH1779GEMBLOUX
Vos photos gr?ce ? Sportograf1633.5815STEENHOUDT Koen43BEL1:46:335:04 11.88213M401780ROBORST
Vos photos gr?ce ? Sportograf1634.4310MIKLOSIK Jaroslaw39POL1:46:335:04 11.88276M351781BRUXELLES
Vos photos gr?ce ? Sportograf1635.5595MASCIA Alessandro37ITA1:46:335:04 11.88277M351782BRUSSELS
Vos photos gr?ce ? Sportograf1636.9709PRÉMONT Patrick57BEL1:46:345:04 11.8850M551783AYWAILLE
Vos photos gr?ce ? Sportograf1637.5460GHESQUIERE Laurent25BEL1:46:345:04 11.88770SEH1784HALLE
Vos photos gr?ce ? Sportograf1638.6771NELISSEN Klaas25BEL1:46:355:04 11.88771SEH1786BRUSSEL
Vos photos gr?ce ? Sportograf1639.4868DEPAEPE Willem41BEL1:46:395:04 11.87214M401790DE PINTE
Vos photos gr?ce ? Sportograf1640.3422LIU Yuchun34CHN1:46:425:04 11.86772SEH1793SUZHOU
Vos photos gr?ce ? Sportograf1641.8215CULOT Lionel36BEL1:46:425:04 11.86278M351794ANDERLECHT
Vos photos gr?ce ? Sportograf1642.9496DEVOS Gorik46BEL1:46:435:04 11.86188M451795RONSE
Vos photos gr?ce ? Sportograf1643.8192NR 8192 -1:46:435:04 11.86-1796
Vos photos gr?ce ? Sportograf1644.6988DEWANDRE Thomas36BEL1:46:455:04 11.86279M351798COURT-SAINT-ETIENNE
Vos photos gr?ce ? Sportograf1645.4826D'HOOGHE Pierre55BEL1:46:455:04 11.8651M551799NIL-SAINT-VINCENT
Vos photos gr?ce ? Sportograf1646.4276CASSEZ Alexandre37BEL1:46:455:04 11.86280M351800FOREST
Vos photos gr?ce ? Sportograf1647.6524THEWISSEN James30BEL1:46:465:04 11.86773SEH1801IXELLES
Vos photos gr?ce ? Sportograf1648.9145SOO John29BEL1:46:475:04 11.85774SEH1802BRUXELLES
Vos photos gr?ce ? Sportograf1649.6721FOLLADOR Antonio31BRA1:46:475:04 11.85775SEH1803CURITIBA
Vos photos gr?ce ? Sportograf1650.9377GEKIERE Aurélien24BEL1:46:485:04 11.85776SEH1804WARNETON
Vos photos gr?ce ? Sportograf1651.4782SAND HOLMBERG Victor29SWE1:46:485:04 11.85777SEH1805BRUXELLES
Vos photos gr?ce ? Sportograf1652.5601VAN DEN BERGHE Bjorn31BEL1:46:485:04 11.85778SEH1806BURST
Vos photos gr?ce ? Sportograf1653.10164BONAVENTURE Matthieu38BEL1:46:495:04 11.85281M351807VIRGINAL
Vos photos gr?ce ? Sportograf1654.4774MENU Ruben17BEL1:46:495:04 11.85779SEH1808POPERINGE
Vos photos gr?ce ? Sportograf1655.6194FERNANDEZ PEREZ Hector26ESP1:46:495:04 11.85780SEH1809AALST
Vos photos gr?ce ? Sportograf1656.8054PACOLET Ben26BEL1:46:505:04 11.85781SEH1810LEUVEN
Vos photos gr?ce ? Sportograf1657.4513VAN CUTSEM Xavier44BEL1:46:515:04 11.85215M401811ITTRE
Vos photos gr?ce ? Sportograf1658.9983D'ADAMO Gaetano34ITA1:46:515:04 11.85782SEH1812ETTERBEEK
Vos photos gr?ce ? Sportograf1659.5922LUETZ Fabian33DEU1:46:515:04 11.85783SEH1813BRUXELLES
Vos photos gr?ce ? Sportograf1660.10056FLECK Michael30AUT1:46:525:04 11.84784SEH1814BRUSSELS
Vos photos gr?ce ? Sportograf1661.10264HOEBEKE Niels41BEL1:46:525:04 11.84216M401815ROESELARE
Vos photos gr?ce ? Sportograf1662.4523DANTZER William56FRA1:46:535:04 11.8452M551816WEZEMBEEK-OPPEM
Vos photos gr?ce ? Sportograf1663.5336ALLARD Joachim33BEL1:46:535:04 11.84785SEH1817MERELBEKE
Vos photos gr?ce ? Sportograf1664.10422CASTREL Stefaan35BEL1:46:535:04 11.84282M351818
Vos photos gr?ce ? Sportograf1665.4587HILMARCHER Thibaud34BEL1:46:535:04 11.84786SEH1819BRUXELLES
Vos photos gr?ce ? Sportograf1666.5005LEFEBVRE Martin22BEL1:46:545:05 11.84787SEH1820MONTIGNY-LE-TILLEUL
Vos photos gr?ce ? Sportograf1667.5759KINIOKO Franck30BEL1:46:545:05 11.84788SEH1822FOREST
Vos photos gr?ce ? Sportograf1668.5420DE GREEF David33BEL1:46:565:05 11.84789SEH1823KOEKELBERG
Vos photos gr?ce ? Sportograf1669.7981RODRIGUEZ Diego35VEN1:46:565:05 11.84283M351824BARCELONA
Vos photos gr?ce ? Sportograf1670.8198SCOUFLAIRE Simon31BEL1:46:575:05 11.84790SEH1825MONS
Vos photos gr?ce ? Sportograf1671.10733DANDOY Daniel58BEL1:46:585:05 11.8353M551827
Vos photos gr?ce ? Sportograf1671.4885MAENHOUT Kevin33BEL1:46:585:05 11.83791SEH1827JETTE
Vos photos gr?ce ? Sportograf1673.9866RAUWERS Anton30BEL1:46:585:05 11.83792SEH1830BRUXELLES
Vos photos gr?ce ? Sportograf1674.7187MARCONI Vincent28FRA1:46:585:05 11.83793SEH1831IXELLES
Vos photos gr?ce ? Sportograf1675.11698WILMART Xavier52BEL1:46:595:05 11.83113M501832WATERMAEL-BOITSFORT
Vos photos gr?ce ? Sportograf1676.9937PELICAEN Filip33BEL1:46:595:05 11.83794SEH1833LIEDEKERKE
Vos photos gr?ce ? Sportograf1677.10943DERIEMAEKER Peter43BEL1:47:005:05 11.83217M401836OUDERGEM
Vos photos gr?ce ? Sportograf1678.9643LOYENS Gert34BEL1:47:005:05 11.83795SEH1837BILZEN
Vos photos gr?ce ? Sportograf1679.5222BRANCKAERTS Koen36BEL1:47:015:05 11.83284M351838BILZEN
Vos photos gr?ce ? Sportograf1680.9763WILLEMS Marc51BEL1:47:025:05 11.83114M501839TIELEN
Vos photos gr?ce ? Sportograf1681.3699DE MEERSMAN Guy50BEL1:47:045:05 11.82115M501840DENDERMONDE
Vos photos gr?ce ? Sportograf1682.4552GURU Rajeev34BEL1:47:045:05 11.82796SEH1841JETTE
Vos photos gr?ce ? Sportograf1683.6811VOUHE Thomas32FRA1:47:055:05 11.82797SEH1842PARIS
Vos photos gr?ce ? Sportograf1684.8095CUCCHIARA VELAZQUEZ Alvaro29ESP1:47:055:05 11.82798SEH1843BRUXELLES
Vos photos gr?ce ? Sportograf1685.9502BAUDOUX Pierre23BEL1:47:065:05 11.82799SEH1844IXELLES
Vos photos gr?ce ? Sportograf1686.9768SANCHEZ GAMONAL Roberto43ESP1:47:065:05 11.82218M401845BRUXELLES
Vos photos gr?ce ? Sportograf1687.5575JAMAR Antoine21BEL1:47:065:05 11.82800SEH1846SPA
Vos photos gr?ce ? Sportograf1688.6486HAUG Martin52DNK1:47:075:05 11.82116M501848HELLERUP
Vos photos gr?ce ? Sportograf1689.5106CONSTANTIN Lucian22ROU1:47:085:05 11.82801SEH1849BRUXELLES
Vos photos gr?ce ? Sportograf1690.8487CASSIMON Patrick55BEL1:47:085:05 11.8154M551850LOENHOUT
Vos photos gr?ce ? Sportograf1691.9648HAEGDORENS Benoit34BEL1:47:095:05 11.81802SEH1852WIHOGNE
Vos photos gr?ce ? Sportograf1692.3604DONCK Alexandre36BEL1:47:105:05 11.81285M351855BEERSEL
Vos photos gr?ce ? Sportograf1693.8166MARCHAL Antoine24BEL1:47:105:05 11.81803SEH1856ETTERBEEK
Vos photos gr?ce ? Sportograf1694.9897SOMERS Pieter34BEL1:47:115:05 11.81804SEH1857BONHEIDEN
Vos photos gr?ce ? Sportograf1695.5268POUCET Jean-Philippe37BEL1:47:115:05 11.81286M351859MOUSCRON
Vos photos gr?ce ? Sportograf1696.9991ROY Sebastien44BEL1:47:125:05 11.81219M401860BRUXELLES
Vos photos gr?ce ? Sportograf1697.3337FICARD Jean-François50FRA1:47:125:05 11.81117M501862PARIS
Vos photos gr?ce ? Sportograf1698.7219COOREMANS Christophe37BEL1:47:125:05 11.81287M351863MERKSEM
Vos photos gr?ce ? Sportograf1699.5803SEBOK Endre41HUN1:47:125:05 11.81220M401864BRUSSELS
Vos photos gr?ce ? Sportograf1700.9023DE COCK Christophe31BEL1:47:135:05 11.81805SEH1865WILLEBROEK
Vos photos gr?ce ? Sportograf1701.9235MAHIEU Stijn36BEL1:47:145:05 11.80288M351866LOVENDEGEM
Vos photos gr?ce ? Sportograf1702.4654MORTIER Frank56BEL1:47:145:05 11.8055M551867REET
Vos photos gr?ce ? Sportograf1703.5274LAMOTE Pieter35BEL1:47:145:05 11.80289M351868KAPELLEN
Vos photos gr?ce ? Sportograf1704.8229VON WAGNER Jakob53DEU1:47:145:05 11.80118M501869UCCLE
Vos photos gr?ce ? Sportograf1705.9941MELLADO David29BEL1:47:155:06 11.80806SEH1870EVERE
Vos photos gr?ce ? Sportograf1706.5729DEN BOER Simon27NLD1:47:155:06 11.80807SEH1871AMSTERDAM
Vos photos gr?ce ? Sportograf1707.3749CLAES Michel53BEL1:47:165:06 11.80119M501872EDEGEM
Vos photos gr?ce ? Sportograf1708.8375MAKANGA Edgar29BEL1:47:185:06 11.80808SEH1873BRUXELLES
Vos photos gr?ce ? Sportograf1708.9874VAN DE CAUTER Vitas27BEL1:47:185:06 11.80808SEH1873GENT
Vos photos gr?ce ? Sportograf1710.8208CHITU Alin38ROU1:47:185:06 11.80290M351875DELFT
Vos photos gr?ce ? Sportograf1711.6355MOURLON Julien38BEL1:47:185:06 11.80291M351876BRUSSELS
Vos photos gr?ce ? Sportograf1712.4372DE CUYPER Simon30BEL1:47:205:06 11.79810SEH1878ASSEBROEK
Vos photos gr?ce ? Sportograf1713.11658ENNAOU El Bachir42PRT1:47:225:06 11.79221M401879BRUXELLES
Vos photos gr?ce ? Sportograf1714.5540D'HAENE Loïc17BEL1:47:235:06 11.79811SEH1881DRONGEN
Vos photos gr?ce ? Sportograf1715.7035SCHURMANS Glenn25BEL1:47:235:06 11.79812SEH1882MALLE
Vos photos gr?ce ? Sportograf1716.6696RONSMANS Manuel30BEL1:47:245:06 11.79813SEH1883TIELT-WINGE
Vos photos gr?ce ? Sportograf1717.4219VERHOEVEN Andre56BEL1:47:255:06 11.7856M551884OVERIJSE
Vos photos gr?ce ? Sportograf1718.5046DE LANNOY Wim54BEL1:47:265:06 11.78120M501886AALTER
Vos photos gr?ce ? Sportograf1719.7429VAN RYSSEGHEM Kevin32NLD1:47:265:06 11.78814SEH1887KLUISBERGEN
Vos photos gr?ce ? Sportograf1720.11630AHLBRECHT Gerhard50DEU1:47:285:06 11.78121M501889BRUXELLES
Vos photos gr?ce ? Sportograf1721.7668DESLOOVER Edwin45BEL1:47:285:06 11.78189M451890LOCHRISTI
Vos photos gr?ce ? Sportograf1722.9742PLAS Gerrit24BEL1:47:295:06 11.78815SEH1891AARSCHOT
Vos photos gr?ce ? Sportograf1723.9541KOCKELBERG Sebastiaan20BEL1:47:295:06 11.78816SEH1892BORNEM
Vos photos gr?ce ? Sportograf1724.10115VAN ROEYEN Thomas20BEL1:47:295:06 11.78817SEH1893PUURS
Vos photos gr?ce ? Sportograf1725.9548GILAIN Philippe58BEL1:47:305:06 11.7757M551894WEPION NAMUR
Vos photos gr?ce ? Sportograf1726.8448LUDO Brillant44BEL1:47:315:06 11.77222M401895SCHAERBEEK
Vos photos gr?ce ? Sportograf1727.5798OBERLÄNDER Daniel20DEU1:47:315:06 11.77818SEH1896BERLIN
Vos photos gr?ce ? Sportograf1728.8409TITS Moos28BEL1:47:315:06 11.77819SEH1898BOOM
Vos photos gr?ce ? Sportograf1729.5429BELLIGOI Julien29BEL1:47:325:06 11.77820SEH1899BONCELLES
Vos photos gr?ce ? Sportograf1730.3780ROUSSEL Frederick43FRA1:47:335:06 11.77223M401900UCCLE
Vos photos gr?ce ? Sportograf1731.4362GIANNOULIDIS Pavlos35GRC1:47:335:06 11.77292M351902LUXEMBOURG
Vos photos gr?ce ? Sportograf1732.5206MAELFAIT Stephane48BEL1:47:335:06 11.77190M451903WELLE
Vos photos gr?ce ? Sportograf1733.9592LAURENT Rene62BEL1:47:335:06 11.7715M601904WAREMME
Vos photos gr?ce ? Sportograf1734.6299PAEME Kurt41BEL1:47:345:06 11.77224M401906ELSENE
Vos photos gr?ce ? Sportograf1735.6310VANDELAER Damien34BEL1:47:345:06 11.77821SEH1907ARLON
Vos photos gr?ce ? Sportograf1736.10335SAEY Mathijs25BEL1:47:355:06 11.77822SEH1908SINT-PIETERS-LEEUW
Vos photos gr?ce ? Sportograf1737.4543MENDEL Jérôme49BEL1:47:365:07 11.76191M451909GRIMBERGEN
Vos photos gr?ce ? Sportograf1738.3454TRILLET Antoine17BEL1:47:385:07 11.76823SEH1910AUDERGHEM
Vos photos gr?ce ? Sportograf1739.8050DOUGOUD Stephane53FRA1:47:395:07 11.76122M501911FOREST
Vos photos gr?ce ? Sportograf1740.9662VAN ASSCHE Olivier38BEL1:47:405:07 11.76293M351912LAUWE
Vos photos gr?ce ? Sportograf1741.3750DUYCKAERTS Philippe46BEL1:47:415:07 11.75192M451913UCCLE
Vos photos gr?ce ? Sportograf1742.7225DE LOBEL Peter38BEL1:47:425:07 11.75294M351914KESSEL
Vos photos gr?ce ? Sportograf1743.6305VERBRUGGHEN Tim40BEL1:47:425:07 11.75225M401915GENT
Vos photos gr?ce ? Sportograf1744.3970DE RYCKE Steven41BEL1:47:435:07 11.75226M401916GALMAAR
Vos photos gr?ce ? Sportograf1745.10982CAUDRON Alexis48BEL1:47:435:07 11.75193M451917IXELLES
Vos photos gr?ce ? Sportograf1746.8213LONGUEVILLE Serge52BEL1:47:435:07 11.75123M501918ETTERBEEK
Vos photos gr?ce ? Sportograf1747.3568BOOGAERTS Gunther41BEL1:47:445:07 11.75227M401919MELSBROEK
Vos photos gr?ce ? Sportograf1748.10732VAN DRIESSCHE Damien40BEL1:47:445:07 11.75228M401920
Vos photos gr?ce ? Sportograf1749.3036VAN HYFTE Frank45BEL1:47:445:07 11.75194M451922LEUVEN
Vos photos gr?ce ? Sportograf1750.5953CORRADO Jean-Pierre58FRA1:47:445:07 11.7558M551923AMIENS
Vos photos gr?ce ? Sportograf1751.5451VYNCKE Nicolas25BEL1:47:475:07 11.74824SEH1925WIHOGNE
Vos photos gr?ce ? Sportograf1752.3417BERTOT Clement33FRA1:47:475:07 11.74825SEH1926BRUXELLES
Vos photos gr?ce ? Sportograf1753.8059PEREMANS Josse28BEL1:47:485:07 11.74826SEH1927BRUSSEL
Vos photos gr?ce ? Sportograf1754.8061STANDAERT William27BEL1:47:485:07 11.74827SEH1928BRUSSEL
Vos photos gr?ce ? Sportograf1755.6426HERPELINCK Fran27BEL1:47:485:07 11.74828SEH1929ANTWERPEN
Vos photos gr?ce ? Sportograf1756.8060BECKERS Joris27BEL1:47:485:07 11.74829SEH1931GRIMBERGEN
Vos photos gr?ce ? Sportograf1757.9809BODAR Rudi46BEL1:47:495:07 11.74195M451932BRUXELLES
Vos photos gr?ce ? Sportograf1758.11766ABOUDI Mehdi44BEL1:47:495:07 11.74229M401933SCHAERBEEK
Vos photos gr?ce ? Sportograf1759.7494DE GRAAFF Raoul31NLD1:47:495:07 11.74830SEH1934HAARLEM
Vos photos gr?ce ? Sportograf1760.5502MICHEL Pascal53BEL1:47:495:07 11.74124M501935BRUXELLES
Vos photos gr?ce ? Sportograf1761.5625SEYNAEVE Bruce23BEL1:47:505:07 11.74831SEH1936IZEGEM
Vos photos gr?ce ? Sportograf1762.7103KLARSKOV Henrik51DNK1:47:505:07 11.74125M501937VALLENSBÆK
Vos photos gr?ce ? Sportograf1763.3481ROZIS Fabien33FRA1:47:515:07 11.74832SEH1938SCHAERBEEK
Vos photos gr?ce ? Sportograf1764.6119DE ROECK Wim39BEL1:47:535:07 11.73295M351941SINT-NIKLAAS
Vos photos gr?ce ? Sportograf1765.9888REMUE Cedric31BEL1:47:545:07 11.73833SEH1942BRUXELLES
Vos photos gr?ce ? Sportograf1766.4171LUKIC Vladimir32FRA1:47:555:07 11.73834SEH1944BRUXELLES
Vos photos gr?ce ? Sportograf1767.3368SØRNES Arne Kristian44NOR1:47:555:07 11.73230M401945BAUDOUR
Vos photos gr?ce ? Sportograf1768.4967CARTER Graeme53GBR1:47:565:07 11.73126M501946BRUXELLES
Vos photos gr?ce ? Sportograf1769.9821VERMAUT Constantijn28BEL1:47:565:07 11.73835SEH1947BRUGGE
Vos photos gr?ce ? Sportograf1770.6237JUAN Rodríguez42BEL1:47:575:07 11.73231M401948BRUSSELS
Vos photos gr?ce ? Sportograf1771.6738PETZOLD André46DEU1:47:575:08 11.73196M451949KELKHEIM
Vos photos gr?ce ? Sportograf1772.3620GABRIEL Benjamin27BEL1:47:575:08 11.73836SEH1950ETTERBEEK
Vos photos gr?ce ? Sportograf1773.3398MAKI-LOHILUOMA Juho22FIN1:47:585:08 11.72837SEH1951TURKU
Vos photos gr?ce ? Sportograf1774.5638LEWANDOWSKI Bartosz28POL1:47:585:08 11.72838SEH1952GÓRA
Vos photos gr?ce ? Sportograf1775.4370DEVOS Mike49BEL1:47:595:08 11.72197M451953AALST
Vos photos gr?ce ? Sportograf1776.3397KONTIAINEN Joel23FIN1:47:595:08 11.72839SEH1954TAMPERE
Vos photos gr?ce ? Sportograf1777.10601BOXUS Jean-Benoît41BEL1:47:595:08 11.72232M401955
Vos photos gr?ce ? Sportograf1778.9093VERHELPEN Olivier26BEL1:47:595:08 11.72840SEH1956WAVRE
Vos photos gr?ce ? Sportograf1779.4604RENAUX Yannick30BEL1:48:005:08 11.72841SEH1957IXELLES
Vos photos gr?ce ? Sportograf1780.7281FAGERQUIST Finn36SWE1:48:015:08 11.72296M351958BRUSSELS
Vos photos gr?ce ? Sportograf1781.3756VAN LANCKER Laurent45BEL1:48:015:08 11.72198M451960COURT SAINT ETIENNE
Vos photos gr?ce ? Sportograf1782.5134VAN HERREWEGHEN Karel60BEL1:48:025:08 11.7216M601961DWORP
Vos photos gr?ce ? Sportograf1783.7454HARTMAN Pieter44NLD1:48:035:08 11.72233M401962ZWIJNDRECHT
Vos photos gr?ce ? Sportograf1784.11631VAN TUIJN Axel26BEL1:48:035:08 11.72842SEH1963WATERLOO
Vos photos gr?ce ? Sportograf1785.3889DE SCHOUTHEETE Leopold26BEL1:48:045:08 11.71843SEH1965BRUXELLES
Vos photos gr?ce ? Sportograf1786.4266BALLANT Denis53BEL1:48:055:08 11.71127M501967BRUXELLES
Vos photos gr?ce ? Sportograf1787.7487LAMOTTE Jonathan38BEL1:48:065:08 11.71297M351969BRUXELLES
Vos photos gr?ce ? Sportograf1788.3582CEUPPENS Jeroen29BEL1:48:065:08 11.71844SEH1970MECHELEN
Vos photos gr?ce ? Sportograf1789.9206STRUYVEN Benjamin32BEL1:48:075:08 11.71845SEH1971IXELLES
Vos photos gr?ce ? Sportograf1790.10306BELFIORE Pietro35BEL1:48:095:08 11.70298M351972MONS
Vos photos gr?ce ? Sportograf1790.7730CLARK Andrew Simon47GBR1:48:095:08 11.70199M451972TERVUREN
Vos photos gr?ce ? Sportograf1792.5788VAN DEN STORME Patrick49BEL1:48:095:08 11.70200M451974SINT-DENIJS-WESTREM
Vos photos gr?ce ? Sportograf1793.6223VAN MOLLE Bert28BEL1:48:095:08 11.70846SEH1975ZELLIK
Vos photos gr?ce ? Sportograf1794.6249VLIEGEN Thierry51BEL1:48:095:08 11.70128M501976AUDERGHEM
Vos photos gr?ce ? Sportograf1795.3259CURTIS Michael48GBR1:48:095:08 11.70201M451977BRUXELLES
Vos photos gr?ce ? Sportograf1796.6435SMEDTS Pieter30BEL1:48:105:08 11.70847SEH1978PUURS
Vos photos gr?ce ? Sportograf1797.7224REGULSKI Marek41POL1:48:115:08 11.70234M401979ETTERBEEK
Vos photos gr?ce ? Sportograf1798.7686PIERRE Matthieu19BEL1:48:115:08 11.70848SEH1982BRUSSEL
Vos photos gr?ce ? Sportograf1799.5457DE HERDT Pieter37BEL1:48:115:08 11.70299M351983GOOIK
Vos photos gr?ce ? Sportograf1800.12424BIERLAIRE Nicolas20BEL1:48:115:08 11.70849SEH1984CHÂTELINEAU
Vos photos gr?ce ? Sportograf1801.5882WITTMANN Dalton26DEU1:48:125:08 11.70850SEH1985RHODE SAINT GENESE
Vos photos gr?ce ? Sportograf1802.5312DALMAY Peter25ISL1:48:125:08 11.70851SEH1986107
Vos photos gr?ce ? Sportograf1803.9535LOSSIE Kevin37BEL1:48:135:08 11.70300M351988SINT-NIKLAAS
Vos photos gr?ce ? Sportograf1804.5265LUKASZEWITZ Marian31DEU1:48:145:08 11.70852SEH1989BRUXELLES
Vos photos gr?ce ? Sportograf1805.10930NAVES Maxime21FRA1:48:145:08 11.69853SEH1990CASTRIES
Vos photos gr?ce ? Sportograf1806.9820CORNET Pierre49BEL1:48:145:08 11.69202M451991WEMMEL
Vos photos gr?ce ? Sportograf1807.7425PAPAGEORGIOU Dimitrios55GRC1:48:155:08 11.6959M551992MAROUSSI
Vos photos gr?ce ? Sportograf1808.12322DE BOCK Philip44BEL1:48:165:08 11.69235M401994OTTIGNIES
Vos photos gr?ce ? Sportograf1809.5371VAN ZIJL Fabrice37BEL1:48:165:08 11.69301M351995DILBEEK
Vos photos gr?ce ? Sportograf1810.9458HENDRICKX Pieter - Jan30BEL1:48:165:08 11.69854SEH1997HASSELT
Vos photos gr?ce ? Sportograf1811.8219DEVOS Carl43BEL1:48:175:08 11.69236M401998BRUXELLES
Vos photos gr?ce ? Sportograf1812.11763DIALLO Ibrahima47BEL1:48:185:09 11.69203M452000BRUXELLES
Vos photos gr?ce ? Sportograf1813.9368FEYE Simon16BEL1:48:195:09 11.69855SEH2002BLANMONT
Vos photos gr?ce ? Sportograf1814.9255DESMET Jeroen24BEL1:48:195:09 11.69856SEH2004SINT-ANDRIES
Vos photos gr?ce ? Sportograf1815.15004DIALLO Alhassane14GIN1:48:195:09 11.69857SEH2005BRUXELLES
Vos photos gr?ce ? Sportograf1816.8443PIERRE Leens32BEL1:48:195:09 11.69858SEH2006UCCLE
Vos photos gr?ce ? Sportograf1817.15003DIALLO Alpha Oumar13GIN1:48:195:09 11.69859SEH2007BRUXELLES
Vos photos gr?ce ? Sportograf1818.15002DIALLO Amadou11GIN1:48:195:09 11.69860SEH2008BRUXELLE
Vos photos gr?ce ? Sportograf1819.9974MEERS Andy37BEL1:48:205:09 11.68302M352009WEZEMAAL
Vos photos gr?ce ? Sportograf1820.8433DE CLERCQ Christophe33BEL1:48:205:09 11.68861SEH2010BRAKEL
Vos photos gr?ce ? Sportograf1821.6908MEIDAN Sharon40ISR1:48:205:09 11.68237M402011TEL-AVIV
Vos photos gr?ce ? Sportograf1822.7375BERNARD Cyril38FRA1:48:205:09 11.68303M352012MARSEILLE
Vos photos gr?ce ? Sportograf1823.3668ANCKAERT Carl32BEL1:48:205:09 11.68862SEH2013
Vos photos gr?ce ? Sportograf1824.9929COKELAERE Dries20BEL1:48:215:09 11.68863SEH2014LEUVEN
Vos photos gr?ce ? Sportograf1824.10492SPECKAERT Nicolas32BEL1:48:215:09 11.68863SEH2014
Vos photos gr?ce ? Sportograf1826.5559FOUREZ Fabian38BEL1:48:215:09 11.68304M352016GEMBLOUX
Vos photos gr?ce ? Sportograf1827.5148GILLES Willem41BEL1:48:245:09 11.68238M402017VAALBEEK
Vos photos gr?ce ? Sportograf1828.9946GROMMERSCH Nicolas37BEL1:48:245:09 11.68305M352019EMINES
Vos photos gr?ce ? Sportograf1829.5566DRUART Sébastien37BEL1:48:245:09 11.68306M352021RUISBROEK
Vos photos gr?ce ? Sportograf1830.5394PIERRE Jean-Christophe56BEL1:48:245:09 11.6860M552022WATERLOO
Vos photos gr?ce ? Sportograf1831.3026GOURDEN Johann27FRA1:48:255:09 11.68865SEH2023WOLUWE SAINT PIERRE
Vos photos gr?ce ? Sportograf1832.6453PUTTEVILS Kris49BEL1:48:255:09 11.68204M452024TIELT-WINGE
Vos photos gr?ce ? Sportograf1833.10395DELENS Tom26BEL1:48:255:09 11.67866SEH2025
Vos photos gr?ce ? Sportograf1834.7729CHELLAF Abdeslam46BEL1:48:265:09 11.67205M452026BRUXELLES
Vos photos gr?ce ? Sportograf1835.9127ELST Robin34BEL1:48:265:09 11.67867SEH2028BRASSCHAAT
Vos photos gr?ce ? Sportograf1836.9341DEDEREN Jean-Marc53BEL1:48:275:09 11.67129M502030OTTIGNIES
Vos photos gr?ce ? Sportograf1837.5835COOK Graeme41GBR1:48:285:09 11.67239M402031BLAYDON
Vos photos gr?ce ? Sportograf1838.3912LEONARD Cedric26BEL1:48:285:09 11.67868SEH2032BRUXELLES
Vos photos gr?ce ? Sportograf1839.4228SCHOUPPE Herman57BEL1:48:285:09 11.6761M552033HOEILAART
Vos photos gr?ce ? Sportograf1840.5098CULIE Antoine21FRA1:48:295:09 11.67869SEH2034ANDERLECHT
Vos photos gr?ce ? Sportograf1841.10414DE BONTE Steven42BEL1:48:295:09 11.67240M402035
Vos photos gr?ce ? Sportograf1842.9755MOËLLO Anthony34FRA1:48:295:09 11.67870SEH2036ETTERBEEK
Vos photos gr?ce ? Sportograf1843.4454SENAEVE Pieterjan33BEL1:48:295:09 11.67871SEH2038TORHOUT
Vos photos gr?ce ? Sportograf1844.10641CRESPIN Hadrien27BEL1:48:295:09 11.67872SEH2040
Vos photos gr?ce ? Sportograf1845.5626GOLEBIEWSKI Lukasz24POL1:48:305:09 11.67873SEH2042POZNAN
Vos photos gr?ce ? Sportograf1846.6088HIBINO Shin35JPN1:48:305:09 11.67307M352043BRUSSELS
Vos photos gr?ce ? Sportograf1847.3360GUNNEMANN Nils31DEU1:48:305:09 11.67874SEH2044KIEL
Vos photos gr?ce ? Sportograf1848.3471AUTIER Denis57FRA1:48:315:09 11.6762M552045UCCLE
Vos photos gr?ce ? Sportograf1849.9938MAES Peter53BEL1:48:315:09 11.67130M502046SINT-NIKLAAS
Vos photos gr?ce ? Sportograf1850.7307KOVACS Sandor45HUN1:48:315:09 11.66206M452047MOSONMAGYAROVAR
Vos photos gr?ce ? Sportograf1851.4404CHAPMAN Robin25BEL1:48:315:09 11.66875SEH2048GENT
Vos photos gr?ce ? Sportograf1852.6201D'HONDT Steven44BEL1:48:315:09 11.66241M402049HAALTERT
Vos photos gr?ce ? Sportograf1853.5934MOSCATELLI Maurizio33ITA1:48:325:09 11.66876SEH2051BRUXELLES
Vos photos gr?ce ? Sportograf1854.4334DE FURSTENBERG Tassilo22BEL1:48:325:09 11.66877SEH2052BRUXELLES
Vos photos gr?ce ? Sportograf1855.6819VAN MAELE Peter38BEL1:48:335:09 11.66308M352056DEINZE
Vos photos gr?ce ? Sportograf1856.10271LORIS Menard41FRA1:48:345:09 11.66242M402058CINEY
Vos photos gr?ce ? Sportograf1857.8423VANDENEIJNDE Guido52BEL1:48:345:09 11.66131M502060ANTWERPEN
Vos photos gr?ce ? Sportograf1858.4553VAN HOUCKE Damien44BEL1:48:355:09 11.66243M402061SINT-ANDRIES
Vos photos gr?ce ? Sportograf1859.9008DELHAYE Julien27BEL1:48:355:09 11.66878SEH2062ENGHIEN
Vos photos gr?ce ? Sportograf1860.4863CHENNAOUI Hichem36BEL1:48:365:09 11.66309M352063BRUXELLES
Vos photos gr?ce ? Sportograf1861.4840LECLERE Frederic39BEL1:48:365:09 11.66310M352064BRUXELLES
Vos photos gr?ce ? Sportograf1862.5362CARPIAUX Jean-Michel40BEL1:48:365:09 11.66244M402065COGNELÉE
Vos photos gr?ce ? Sportograf1863.9872PAPPENS Bertrand24BEL1:48:365:09 11.66879SEH2066DWORP
Vos photos gr?ce ? Sportograf1864.7710VAN ZEGBROECK Geert49BEL1:48:365:09 11.66207M452067BORNEM
Vos photos gr?ce ? Sportograf1865.5668ROSENFELD Niolas28FRA1:48:365:09 11.65880SEH2068ANDERLECHT
Vos photos gr?ce ? Sportograf1866.10817LENELLE Jerome33BEL1:48:375:09 11.65881SEH2069
Vos photos gr?ce ? Sportograf1867.7196VAN RIET Robbe30BEL1:48:375:09 11.65882SEH2070SINT-AMANDS
Vos photos gr?ce ? Sportograf1868.4423MILIS Stephan58BEL1:48:375:09 11.6563M552071KRAAINEM
Vos photos gr?ce ? Sportograf1869.10736VANHULSEL David40BEL1:48:385:09 11.65245M402072
Vos photos gr?ce ? Sportograf1870.7347KENNEDY James36GBR1:48:385:09 11.65311M352073LONDON
Vos photos gr?ce ? Sportograf1871.4094SORREAUX Grégory39BEL1:48:395:10 11.65312M352074ENGHIEN
Vos photos gr?ce ? Sportograf1872.6548DEBOUTTE Peter55BEL1:48:395:10 11.6564M552075ROESELARE
Vos photos gr?ce ? Sportograf1873.9992FOULON Jean - Pol60BEL1:48:395:10 11.6517M602076GILLY
Vos photos gr?ce ? Sportograf1874.3518FELLMANN Marc60FRA1:48:405:10 11.6518M602077NEUBOIS
Vos photos gr?ce ? Sportograf1875.5289DE BACKER Patrick54BEL1:48:415:10 11.65132M502078LEDEBERG
Vos photos gr?ce ? Sportograf1876.5377VERTESSEN Mathias24BEL1:48:415:10 11.65883SEH2079MERKSEM
Vos photos gr?ce ? Sportograf1877.4909ZAOUDI Said51BEL1:48:415:10 11.65133M502080BRAINE-L'ALLEUD
Vos photos gr?ce ? Sportograf1878.7842CSILLAG Tibor38HUN1:48:435:10 11.64313M352082BUDAPEST
Vos photos gr?ce ? Sportograf1879.6292ZIOLKOWSKI Jan Marek41POL1:48:445:10 11.64246M402083WOLUWE SAINT LAMBERT
Vos photos gr?ce ? Sportograf1880.6218GHIJSELINGS Idris28BEL1:48:445:10 11.64884SEH2084GALMAARDEN
Vos photos gr?ce ? Sportograf1881.6826DUPONT Romain30BEL1:48:455:10 11.64885SEH2086GOSSELIES
Vos photos gr?ce ? Sportograf1882.6944VALENTE RASQUINHO Manuel36BEL1:48:475:10 11.64314M352087BRUXELLES
Vos photos gr?ce ? Sportograf1883.3426SINNAEVE Gerard41BEL1:48:475:10 11.64247M402088JABBEKE
Vos photos gr?ce ? Sportograf1884.4521KETS Johnny56BEL1:48:495:10 11.6365M552089MARCHE-EN-FAMENNE
Vos photos gr?ce ? Sportograf1885.7771BRANS Kris42BEL1:48:505:10 11.63248M402090HOLSBEEK
Vos photos gr?ce ? Sportograf1886.5040VERHELST Dorian26BEL1:48:505:10 11.63886SEH2091VILLERS SUR LESSE
Vos photos gr?ce ? Sportograf1887.7931SWENNEN Jean-Philippe39BEL1:48:505:10 11.63315M352092OVERIJSE
Vos photos gr?ce ? Sportograf1888.12412MASTROPIETRO Fabrice40BEL1:48:505:10 11.63249M402093NALINNES
Vos photos gr?ce ? Sportograf1889.7006GENIS William28FRA1:48:525:10 11.63887SEH2094CAMBRAI
Vos photos gr?ce ? Sportograf1890.5878VAN HOOF Marc57BEL1:48:535:10 11.6366M552095DROGENBOS
Vos photos gr?ce ? Sportograf1891.10796VAN CAUWENBERGH Philippe45BEL1:48:545:10 11.62208M452096
Vos photos gr?ce ? Sportograf1892.4330VERMEIRSCH Jurgen33BEL1:48:545:10 11.62888SEH2097ANTWERPEN
Vos photos gr?ce ? Sportograf1893.9712CARPIN Matthieu43BEL1:48:555:10 11.62250M402098FLAWINNE
Vos photos gr?ce ? Sportograf1894.5387GOURVENNEC Pierre-Maxime25FRA1:48:575:10 11.62889SEH2099SAINT-NAZAIRE
Vos photos gr?ce ? Sportograf1895.12327BLERO Daniel45BEL1:48:575:10 11.62209M452100LA HULPE
Vos photos gr?ce ? Sportograf1896.7917WEEKS Stephen40GBR1:48:575:10 11.62251M402101LEUVEN
Vos photos gr?ce ? Sportograf1897.9117MENU Eric50BEL1:48:595:10 11.61134M502102BRAINE-L'ALLEUD
Vos photos gr?ce ? Sportograf1898.5215DE CUYPER Filip17BEL1:49:005:10 11.61890SEH2103MARIAKERKE
Vos photos gr?ce ? Sportograf1899.6199MAGERMAN Louis23BEL1:49:005:10 11.61891SEH2104BRUXELLES
Vos photos gr?ce ? Sportograf1900.5982VAN LOO Christian42BEL1:49:005:10 11.61252M402105TUBIZE
Vos photos gr?ce ? Sportograf1901.4175REGNIER Simon29BEL1:49:005:10 11.61892SEH2106LIEGE
Vos photos gr?ce ? Sportograf1902.7826SNEYERS Jeroen Jan30BEL1:49:005:11 11.61893SEH2108LEUVEN
Vos photos gr?ce ? Sportograf1903.10310WALGRAEVE Hans61BEL1:49:015:11 11.6119M602109AALST
Vos photos gr?ce ? Sportograf1904.9624DE MOOR Kris38BEL1:49:025:11 11.61316M352111LOVENDEGEM
Vos photos gr?ce ? Sportograf1905.4570VERBOUW Dick31BEL1:49:025:11 11.61894SEH2113ASSEBROEK
Vos photos gr?ce ? Sportograf1906.9154CLAEYS Nico40BEL1:49:025:11 11.61253M402114ASSENEDE
Vos photos gr?ce ? Sportograf1907.11760DEUMENS Werner58BEL1:49:025:11 11.6167M552115BRUSSEL
Vos photos gr?ce ? Sportograf1908.5182DERAEDT Tom33BEL1:49:025:11 11.61895SEH2116OUDENAARDE
Vos photos gr?ce ? Sportograf1909.9743BRACKE Rodney31BEL1:49:025:11 11.61896SEH2117LOKEREN
Vos photos gr?ce ? Sportograf1910.5311RIERA Diego29BEL1:49:035:11 11.61897SEH2118WEZEMBEEK-OPPEM
Vos photos gr?ce ? Sportograf1911.3776VAN DEN MEERSCHE Philippe38BEL1:49:045:11 11.61317M352119STINT-DENIJS-WESTREM
Vos photos gr?ce ? Sportograf1912.7733GANNE Eliott26FRA1:49:055:11 11.60898SEH2120CAEN
Vos photos gr?ce ? Sportograf1913.6275GOFFART Valéry39BEL1:49:055:11 11.60318M352121WAVRE
Vos photos gr?ce ? Sportograf1914.4627DELEUSE Rémi22BEL1:49:055:11 11.60899SEH2122MARCQ
Vos photos gr?ce ? Sportograf1915.6144MICHIELSSEN Jorik24BEL1:49:055:11 11.60900SEH2123EKEREN
Vos photos gr?ce ? Sportograf1916.11747PETITJEAN Etienne51BEL1:49:065:11 11.60135M502124BRUXELLES
Vos photos gr?ce ? Sportograf1917.8278HAHATI Anas25BEL1:49:065:11 11.60901SEH2125BRUXELLES
Vos photos gr?ce ? Sportograf1918.3896MARIANO Matteo25BEL1:49:075:11 11.60902SEH2127BRUXELLES
Vos photos gr?ce ? Sportograf1919.10801GHESQUIERE Maxim22BEL1:49:075:11 11.60903SEH2128
Vos photos gr?ce ? Sportograf1920.9728GEETS Romain16BEL1:49:075:11 11.60904SEH2129HOEILAART
Vos photos gr?ce ? Sportograf1921.7629CANTIGNEAU Olivier45BEL1:49:085:11 11.60210M452130BAUDOUR
Vos photos gr?ce ? Sportograf1922.4365LAGNEAU Mathieu38BEL1:49:095:11 11.60319M352132ANDERLECHT
Vos photos gr?ce ? Sportograf1923.5824PLONER Osvaldo54ITA1:49:115:11 11.59136M502133WOLKENSTEIN
Vos photos gr?ce ? Sportograf1924.8149CRAUWELS Peter45BEL1:49:115:11 11.59211M452134SINT-LAMBRECHTS-HERK
Vos photos gr?ce ? Sportograf1925.8481SMIT Martijn44NLD1:49:115:11 11.59254M402136ROTTERDAM
Vos photos gr?ce ? Sportograf1926.10798SEYE Stefaan48BEL1:49:125:11 11.59212M452138
Vos photos gr?ce ? Sportograf1927.11695KEKEC Tarik36BEL1:49:125:11 11.59320M352139BERLAAR
Vos photos gr?ce ? Sportograf1928.8018JOURET Thomas23BEL1:49:135:11 11.59905SEH2140TOURNAI
Vos photos gr?ce ? Sportograf1929.7943CARPIN Pélé40BEL1:49:135:11 11.59255M402141WAVRE
Vos photos gr?ce ? Sportograf1930.4771OUMESSAOUD Nadir39BEL1:49:155:11 11.59321M352142GRIMBERGEN
Vos photos gr?ce ? Sportograf1931.3441REGUERAS Pedro52ESP1:49:155:11 11.59137M502143GANSHOREN
Vos photos gr?ce ? Sportograf1932.5375DEWINTER Kris43BEL1:49:155:11 11.59256M402144ALSEMBERG
Vos photos gr?ce ? Sportograf1933.10957HAYEZ Jules25BEL1:49:155:11 11.59906SEH2145UCCLE
Vos photos gr?ce ? Sportograf1934.11664STILLEMANS Georges52BEL1:49:155:11 11.59138M502146BRUXELLES
Vos photos gr?ce ? Sportograf1935.8162VANCOPPENOLLE Yannick40BEL1:49:165:11 11.58257M402148WARISOULX
Vos photos gr?ce ? Sportograf1936.10027GROOTJANS Geert26BEL1:49:185:11 11.58907SEH2149ZOERSEL
Vos photos gr?ce ? Sportograf1937.4715PEROVIC Darko24SCG1:49:185:11 11.58908SEH2150BELGRADE
Vos photos gr?ce ? Sportograf1938.4729LOSSEAU Guillaume28BEL1:49:185:11 11.58909SEH2151BEAUMONT
Vos photos gr?ce ? Sportograf1939.4442MANNINO Giuseppe52ITA1:49:185:11 11.58139M502152SCHAERBEEK
Vos photos gr?ce ? Sportograf1940.3472DENIS Antoine28BEL1:49:185:11 11.58910SEH2153GAURAIN
Vos photos gr?ce ? Sportograf1941.3080VERTONGHEN Christopher31BEL1:49:185:11 11.58911SEH2154BRAIVES
Vos photos gr?ce ? Sportograf1942.4364BERGÈS-BAZILE Fabien44FRA1:49:195:11 11.58258M402155TERVUREN
Vos photos gr?ce ? Sportograf1943.10355PLAMONT Olivier43BEL1:49:195:11 11.58259M402156JAUCHE
Vos photos gr?ce ? Sportograf1944.10361LIEGEOIS Nicolas38BEL1:49:195:11 11.58322M352157HELECINE
Vos photos gr?ce ? Sportograf1945.3387KANDAL Torjus Kleiven28NOR1:49:205:11 11.58912SEH2158BRUSSELS
Vos photos gr?ce ? Sportograf1946.10135REGNIER Olivier49BEL1:49:225:12 11.57213M452159WEZEMBEEK-OPPEM
Vos photos gr?ce ? Sportograf1947.5610ROUHART Daniel49BEL1:49:225:12 11.57214M452160FAIMES
Vos photos gr?ce ? Sportograf1948.10480DEMOL Patrick48BEL1:49:225:12 11.57215M452161
Vos photos gr?ce ? Sportograf1949.6056FROLOV Artem27RUS1:49:235:12 11.57913SEH2162SAINT-PETERSBURG
Vos photos gr?ce ? Sportograf1950.9147PIRON Olivier47BEL1:49:245:12 11.57216M452163CLABECQ
Vos photos gr?ce ? Sportograf1951.8268HARVEY Howard39GBR1:49:245:12 11.57323M352164BRUXELLES
Vos photos gr?ce ? Sportograf1952.3443PEYCKER Stéphane Henri42BEL1:49:245:12 11.57260M402165FOREST
Vos photos gr?ce ? Sportograf1953.10472ANTHIERENS Peter51BEL1:49:255:12 11.57140M502168
Vos photos gr?ce ? Sportograf1954.10160HERMANS Christian40BEL1:49:255:12 11.57261M402169BRUXELLES
Vos photos gr?ce ? Sportograf1955.12163WAILING Sonny38BEL1:49:265:12 11.57324M352170UCCLE
Vos photos gr?ce ? Sportograf1956.3987DIERCK Maxime29BEL1:49:275:12 11.57914SEH2171WILRIJK
Vos photos gr?ce ? Sportograf1957.8492CLINET Philippe47BEL1:49:275:12 11.56217M452172PROFONDEVILLE
Vos photos gr?ce ? Sportograf1958.3673DE BROUWER Andy41BEL1:49:275:12 11.56262M402173
Vos photos gr?ce ? Sportograf1959.8205MASSANT Benoît32BEL1:49:285:12 11.56915SEH2174DIEGEM
Vos photos gr?ce ? Sportograf1960.7313NIMZILNE Pierre22FRA1:49:285:12 11.56916SEH2175SAINT-FLOUR
Vos photos gr?ce ? Sportograf1961.6165RICARD Yannick48FRA1:49:295:12 11.56218M452176ANDERLECHT
Vos photos gr?ce ? Sportograf1962.10810GRAVA Laurent43BEL1:49:305:12 11.56263M402177
Vos photos gr?ce ? Sportograf1963.3651VRANCKX Philippe42BEL1:49:305:12 11.56264M402179
Vos photos gr?ce ? Sportograf1964.4644VISSER Gijs35BEL1:49:315:12 11.56325M352180ANTWERPEN
Vos photos gr?ce ? Sportograf1965.8044VAN ENIS Quentin32BEL1:49:315:12 11.56917SEH2181FOREST
Vos photos gr?ce ? Sportograf1966.3763LAURENT Julien40BEL1:49:325:12 11.56265M402183WALHAIN
Vos photos gr?ce ? Sportograf1967.6884HARTL Christoph33AUT1:49:335:12 11.55918SEH2185BRUSSELS
Vos photos gr?ce ? Sportograf1968.10192DE SMET Pascal54BEL1:49:335:12 11.55141M502186NIEUWERKERKEN
Vos photos gr?ce ? Sportograf1969.4584ROEKAERTS Jean-Pierre46BEL1:49:335:12 11.55219M452187BRUXELLES
Vos photos gr?ce ? Sportograf1970.4585DESMET Michel44BEL1:49:335:12 11.55266M402188KRAAINEM
Vos photos gr?ce ? Sportograf1971.3206LAURENT Bonfond28BEL1:49:335:12 11.55919SEH2189IXELLES
Vos photos gr?ce ? Sportograf1972.8333OUATARA Ahmed33CIV1:49:355:12 11.55920SEH2190NIVELLES
Vos photos gr?ce ? Sportograf1973.7813OLDENDOERP Horst54DEU1:49:355:12 11.55142M502191BREMEN
Vos photos gr?ce ? Sportograf1974.4803DELMULLE Ward22BEL1:49:365:12 11.55921SEH2192KLUISBERGEN
Vos photos gr?ce ? Sportograf1975.5465DE RIDDER Simon28BEL1:49:365:12 11.55922SEH2193VORST
Vos photos gr?ce ? Sportograf1976.6245VAN DIJK Niels25NLD1:49:385:12 11.54923SEH2195RIDDERKERK
Vos photos gr?ce ? Sportograf1977.6700LIBERTI Fabio36ITA1:49:395:12 11.54326M352198FOREST
Vos photos gr?ce ? Sportograf1978.6244STOK Olaf30NLD1:49:405:12 11.54924SEH2199RIDDERKERK
Vos photos gr?ce ? Sportograf1979.4022REUNIS Philippe50BEL1:49:425:12 11.54143M502200BRUSELLES
Vos photos gr?ce ? Sportograf1980.3513DAUPHINOT Andy27FRA1:49:425:12 11.54925SEH2201ETTERBEEK
Vos photos gr?ce ? Sportograf1981.11665DEVISE Laurent51FRA1:49:445:13 11.54144M502202UCCLE
Vos photos gr?ce ? Sportograf1982.5308PODSIADLO Piotr37POL1:49:445:13 11.53327M352203GDYNIA
Vos photos gr?ce ? Sportograf1983.4023SCHELSTRAETE Nico48BEL1:49:445:13 11.53220M452204ADEGEM
Vos photos gr?ce ? Sportograf1984.3512JONCHERE Jérémie33FRA1:49:455:13 11.53926SEH2205VILVOORDE
Vos photos gr?ce ? Sportograf1985.11712LAJUS Romain23FRA1:49:455:13 11.53927SEH2206IXELLES
Vos photos gr?ce ? Sportograf1986.8326WAUTERS Brent23BEL1:49:465:13 11.53928SEH2207PEPINGEN
Vos photos gr?ce ? Sportograf1987.8228OST Bernard48BEL1:49:465:13 11.53221M452208HALLE
DNF: abandon; DSQ: disqualifié; Vitesse en km/h
Page: 1 2 3 [4] 5 6 7 8 9 10